createdAt,value
2022-10-17T00:00:19.084Z,17.70
2022-10-17T00:02:47.702Z,18.93
2022-10-17T00:05:16.691Z,18.33
2022-10-17T00:07:50.151Z,20.40
2022-10-17T00:10:18.784Z,19.97
2022-10-17T00:12:47.685Z,17.20
2022-10-17T00:15:18.724Z,17.87
2022-10-17T00:17:47.331Z,19.70
2022-10-17T00:20:17.513Z,19.43
2022-10-17T00:22:47.341Z,18.10
2022-10-17T00:25:15.708Z,19.47
2022-10-17T00:27:44.778Z,19.37
2022-10-17T00:30:18.647Z,19.20
2022-10-17T00:32:48.688Z,19.33
2022-10-17T00:35:16.949Z,19.80
2022-10-17T00:37:47.705Z,18.20
2022-10-17T00:40:16.854Z,18.33
2022-10-17T00:42:47.541Z,17.63
2022-10-17T00:45:24.708Z,19.63
2022-10-17T00:47:57.720Z,26.53
2022-10-17T00:50:26.766Z,19.10
2022-10-17T00:53:03.687Z,18.70
2022-10-17T00:55:34.571Z,20.13
2022-10-17T00:58:05.976Z,18.57
2022-10-17T01:00:37.187Z,19.20
2022-10-17T01:03:06.725Z,19.83
2022-10-17T01:05:36.083Z,19.90
2022-10-17T01:08:06.745Z,19.50
2022-10-17T01:10:40.960Z,19.73
2022-10-17T01:13:15.587Z,20.40
2022-10-17T01:15:58.801Z,19.03
2022-10-17T01:18:42.739Z,18.37
2022-10-17T01:21:32.772Z,19.40
2022-10-17T01:24:54.815Z,20.37
2022-10-17T01:27:58.744Z,21.20
2022-10-17T01:31:06.045Z,18.37
2022-10-17T01:33:47.401Z,17.97
2022-10-17T01:36:27.283Z,20.63
2022-10-17T01:39:02.131Z,20.10
2022-10-17T01:41:39.843Z,19.67
2022-10-17T01:44:14.729Z,19.10
2022-10-17T01:46:46.836Z,18.77
2022-10-17T01:49:21.779Z,18.20
2022-10-17T01:51:54.793Z,18.03
2022-10-17T01:54:27.853Z,18.23
2022-10-17T01:57:00.616Z,17.67
2022-10-17T01:59:36.783Z,18.17
2022-10-17T02:02:06.763Z,18.47
2022-10-17T02:04:38.603Z,20.33
2022-10-17T02:07:10.800Z,19.10
2022-10-17T02:09:40.059Z,19.30
2022-10-17T02:12:29.819Z,19.63
2022-10-17T02:15:11.873Z,20.90
2022-10-17T02:17:50.857Z,17.87
2022-10-17T02:20:26.599Z,19.40
2022-10-17T02:23:00.863Z,21.30
2022-10-17T02:25:37.028Z,20.33
2022-10-17T02:28:17.557Z,19.53
2022-10-17T02:30:56.653Z,19.47
2022-10-17T02:33:30.149Z,24.30
2022-10-17T02:36:04.782Z,20.07
2022-10-17T02:38:38.195Z,19.63
2022-10-17T02:41:12.656Z,19.97
2022-10-17T02:43:45.239Z,21.47
2022-10-17T02:46:20.790Z,19.77
2022-10-17T02:48:53.168Z,22.10
2022-10-17T02:51:30.821Z,20.57
2022-10-17T02:54:06.350Z,20.73
2022-10-17T02:56:44.836Z,21.07
2022-10-17T02:59:15.793Z,19.00
2022-10-17T03:01:45.570Z,19.20
2022-10-17T03:04:15.920Z,20.33
2022-10-17T03:06:52.393Z,19.47
2022-10-17T03:09:21.668Z,18.43
2022-10-17T03:11:50.959Z,20.23
2022-10-17T03:14:20.454Z,23.87
2022-10-17T03:16:48.797Z,19.83
2022-10-17T03:19:20.876Z,18.77
2022-10-17T03:21:55.467Z,19.70
2022-10-17T03:24:26.890Z,19.70
2022-10-17T03:26:55.065Z,19.40
2022-10-17T03:29:23.840Z,21.47
2022-10-17T03:31:52.091Z,21.57
2022-10-17T03:34:21.229Z,21.53
2022-10-17T03:36:55.130Z,21.43
2022-10-17T03:39:23.907Z,19.23
2022-10-17T03:41:52.356Z,19.17
2022-10-17T03:44:20.616Z,22.57
2022-10-17T03:46:51.528Z,27.63
2022-10-17T03:49:19.740Z,27.87
2022-10-17T03:51:48.843Z,27.00
2022-10-17T03:54:20.326Z,24.23
2022-10-17T03:56:49.581Z,23.50
2022-10-17T03:59:20.824Z,28.13
2022-10-17T04:01:59.724Z,22.23
2022-10-17T04:04:28.840Z,28.33
2022-10-17T04:07:00.093Z,22.73
2022-10-17T04:09:34.286Z,26.27
2022-10-17T04:12:08.796Z,22.70
2022-10-17T04:14:42.103Z,28.67
2022-10-17T04:17:10.577Z,25.63
2022-10-17T04:19:40.691Z,25.37
2022-10-17T04:22:09.885Z,23.63
2022-10-17T04:24:42.552Z,22.30
2022-10-17T04:27:14.826Z,22.87
2022-10-17T04:29:46.863Z,26.67
2022-10-17T04:32:22.761Z,34.57
2022-10-17T04:34:56.496Z,29.17
2022-10-17T04:37:27.205Z,24.13
2022-10-17T04:39:57.434Z,27.27
2022-10-17T04:42:27.135Z,33.07
2022-10-17T04:44:55.718Z,31.57
2022-10-17T04:47:26.900Z,33.13
2022-10-17T04:49:56.882Z,32.60
2022-10-17T04:52:29.082Z,34.07
2022-10-17T04:54:59.047Z,23.77
2022-10-17T04:57:29.672Z,25.57
2022-10-17T05:00:11.737Z,23.47
2022-10-17T05:03:01.514Z,27.20
2022-10-17T05:05:34.630Z,28.73
2022-10-17T05:08:04.225Z,31.30
2022-10-17T05:10:39.732Z,32.63
2022-10-17T05:13:09.427Z,25.03
2022-10-17T05:15:39.899Z,25.03
2022-10-17T05:18:08.974Z,26.50
2022-10-17T05:20:38.319Z,27.37
2022-10-17T05:23:08.955Z,39.17
2022-10-17T05:25:42.730Z,66.73
2022-10-17T05:28:11.031Z,47.90
2022-10-17T05:30:41.603Z,60.27
2022-10-17T05:33:10.921Z,67.57
2022-10-17T05:35:43.213Z,54.13
2022-10-17T05:38:11.876Z,68.97
2022-10-17T05:40:44.933Z,53.60
2022-10-17T05:43:14.836Z,53.80
2022-10-17T05:45:44.753Z,45.43
2022-10-17T05:48:19.151Z,60.90
2022-10-17T05:50:48.837Z,51.40
2022-10-17T05:53:20.197Z,43.37
2022-10-17T05:55:59.742Z,37.77
2022-10-17T05:58:49.272Z,52.73
2022-10-17T06:01:38.547Z,42.77
2022-10-17T06:04:06.916Z,40.20
2022-10-17T06:06:37.877Z,42.73
2022-10-17T06:09:08.112Z,47.33
2022-10-17T06:11:41.240Z,58.23
2022-10-17T06:14:09.947Z,59.27
2022-10-17T06:16:40.925Z,48.13
2022-10-17T06:19:09.225Z,61.57
2022-10-17T06:21:38.915Z,53.47
2022-10-17T06:24:21.174Z,50.90
2022-10-17T06:26:54.088Z,38.03
2022-10-17T06:29:23.401Z,47.60
2022-10-17T06:31:54.117Z,52.73
2022-10-17T06:34:22.720Z,34.67
2022-10-17T06:36:52.006Z,41.20
2022-10-17T06:39:21.775Z,34.30
2022-10-17T06:42:07.572Z,29.53
2022-10-17T06:44:51.937Z,24.43
2022-10-17T06:47:44.937Z,27.60
2022-10-17T06:50:33.150Z,24.43
2022-10-17T06:53:20.093Z,27.73
2022-10-17T06:56:10.908Z,26.27
2022-10-17T06:59:01.044Z,29.03
2022-10-17T07:01:37.398Z,26.70
2022-10-17T07:04:06.780Z,26.03
2022-10-17T07:06:39.393Z,27.60
2022-10-17T07:09:17.408Z,29.47
2022-10-17T07:11:48.521Z,33.90
2022-10-17T07:14:20.861Z,53.13
2022-10-17T07:16:51.072Z,35.87
2022-10-17T07:19:25.338Z,26.33
2022-10-17T07:21:57.946Z,26.33
2022-10-17T07:24:26.989Z,25.87
2022-10-17T07:27:01.732Z,28.30
2022-10-17T07:29:32.747Z,24.13
2022-10-17T07:32:08.700Z,26.57
2022-10-17T07:34:37.801Z,25.07
2022-10-17T07:37:09.934Z,24.50
2022-10-17T07:39:41.823Z,25.43
2022-10-17T07:42:15.606Z,25.50
2022-10-17T07:44:48.391Z,25.70
2022-10-17T07:47:16.816Z,27.33
2022-10-17T07:49:46.994Z,27.93
2022-10-17T07:52:16.776Z,26.83
2022-10-17T07:54:45.951Z,25.33
2022-10-17T07:57:18.079Z,26.07
2022-10-17T07:59:51.921Z,28.73
2022-10-17T08:02:24.775Z,23.43
2022-10-17T08:04:53.966Z,27.10
2022-10-17T08:07:29.253Z,24.67
2022-10-17T08:09:58.737Z,25.07
2022-10-17T08:12:32.319Z,25.20
2022-10-17T08:15:02.515Z,22.77
2022-10-17T08:17:30.715Z,24.77
2022-10-17T08:20:01.018Z,25.43
2022-10-17T08:22:30.258Z,23.17
2022-10-17T08:25:01.208Z,32.40
2022-10-17T08:27:29.388Z,37.75
2022-10-17T08:29:57.988Z,23.85
2022-10-17T08:32:29.754Z,32.85
2022-10-17T08:35:02.363Z,27.75
2022-10-17T08:37:32.782Z,24.20
2022-10-17T08:40:03.047Z,23.98
2022-10-17T08:43:01.989Z,24.58
2022-10-17T08:45:41.122Z,24.90
2022-10-17T08:48:14.686Z,25.67
2022-10-17T08:50:48.530Z,24.73
2022-10-17T08:53:23.501Z,24.92
2022-10-17T08:55:56.369Z,26.08
2022-10-17T08:58:31.452Z,24.40
2022-10-17T09:01:10.516Z,26.90
2022-10-17T09:04:00.778Z,23.40
2022-10-17T09:06:35.357Z,26.48
2022-10-17T09:09:17.687Z,24.85
2022-10-17T09:12:04.657Z,23.17
2022-10-17T09:14:58.981Z,23.50
2022-10-17T09:17:38.029Z,27.30
2022-10-17T09:20:15.251Z,23.70
2022-10-17T09:22:47.865Z,24.65
2022-10-17T09:25:20.043Z,26.95
2022-10-17T09:27:57.595Z,23.75
2022-10-17T09:30:51.556Z,21.95
2022-10-17T09:33:35.533Z,27.98
2022-10-17T09:36:17.021Z,25.70
2022-10-17T09:38:51.576Z,25.15
2022-10-17T09:41:44.200Z,24.17
2022-10-17T09:44:19.367Z,22.77
2022-10-17T09:47:16.592Z,23.70
2022-10-17T09:49:47.106Z,25.00
2022-10-17T09:52:23.445Z,22.02
2022-10-17T09:54:53.833Z,22.67
2022-10-17T09:57:25.638Z,22.67
2022-10-17T10:00:00.503Z,21.67
2022-10-17T10:02:31.563Z,25.02
2022-10-17T10:05:04.671Z,19.38
2022-10-17T10:07:37.061Z,21.75
2022-10-17T10:10:08.216Z,20.50
2022-10-17T10:12:40.019Z,23.60
2022-10-17T10:15:32.857Z,22.08
2022-10-17T10:18:04.662Z,22.38
2022-10-17T10:20:38.437Z,19.50
2022-10-17T10:23:17.242Z,23.40
2022-10-17T10:25:58.088Z,20.58
2022-10-17T10:28:30.105Z,20.88
2022-10-17T10:31:01.611Z,19.30
2022-10-17T10:33:31.774Z,18.27
2022-10-17T10:36:05.072Z,20.75
2022-10-17T10:38:35.371Z,18.63
2022-10-17T10:41:06.032Z,18.98
2022-10-17T10:43:39.223Z,17.52
2022-10-17T10:46:19.526Z,16.90
2022-10-17T10:48:56.659Z,18.38
2022-10-17T10:51:31.068Z,16.33
2022-10-17T10:54:07.102Z,17.73
2022-10-17T10:56:41.108Z,19.20
2022-10-17T10:59:19.151Z,16.15
2022-10-17T11:01:52.875Z,14.90
2022-10-17T11:04:30.391Z,15.75
2022-10-17T11:07:05.040Z,17.02
2022-10-17T11:09:48.052Z,17.35
2022-10-17T11:12:22.072Z,17.52
2022-10-17T11:14:55.734Z,20.95
2022-10-17T11:17:33.874Z,17.58
2022-10-17T11:20:15.224Z,14.88
2022-10-17T11:22:46.549Z,17.25
2022-10-17T11:25:26.976Z,13.60
2022-10-17T11:28:04.496Z,16.38
2022-10-17T11:30:46.917Z,16.00
2022-10-17T11:33:22.075Z,17.25
2022-10-17T11:35:53.100Z,16.67
2022-10-17T11:38:27.751Z,15.30
2022-10-17T11:41:01.119Z,16.58
2022-10-17T11:43:34.809Z,13.43
2022-10-17T11:46:08.288Z,16.50
2022-10-17T11:48:42.217Z,13.30
2022-10-17T11:54:10.964Z,12.52
2022-10-17T11:56:51.118Z,12.63
2022-10-17T12:00:04.937Z,15.23
2022-10-17T12:02:44.120Z,22.48
2022-10-17T12:05:24.076Z,13.38
2022-10-17T12:08:04.705Z,14.63
2022-10-17T12:10:45.048Z,12.40
2022-10-17T12:13:55.374Z,13.27
2022-10-17T12:16:43.991Z,15.07
2022-10-17T12:19:26.339Z,16.10
2022-10-17T12:22:08.094Z,13.15
2022-10-17T12:24:40.949Z,13.43
2022-10-17T12:27:42.446Z,16.17
2022-10-17T12:30:21.971Z,18.98
2022-10-17T12:33:22.177Z,13.80
2022-10-17T12:35:51.451Z,16.17
2022-10-17T12:38:26.165Z,15.63
2022-10-17T12:41:10.139Z,15.93
2022-10-17T12:46:55.424Z,18.35
2022-10-17T12:49:38.267Z,14.68
2022-10-17T12:52:17.207Z,20.42
2022-10-17T12:55:00.322Z,17.33
2022-10-17T12:57:41.972Z,16.75
2022-10-17T13:00:20.158Z,19.50
2022-10-17T13:02:50.938Z,16.92
2022-10-17T13:05:28.173Z,13.52
2022-10-17T13:07:57.768Z,13.50
2022-10-17T13:10:29.224Z,13.63
2022-10-17T13:13:07.251Z,17.65
2022-10-17T13:15:37.141Z,32.75
2022-10-17T13:18:08.264Z,20.25
2022-10-17T13:20:40.734Z,16.33
2022-10-17T13:23:23.939Z,14.75
2022-10-17T13:26:05.046Z,13.93
2022-10-17T13:28:39.730Z,15.70
2022-10-17T13:31:31.843Z,13.10
2022-10-17T13:34:04.387Z,17.13
2022-10-17T13:36:35.337Z,16.90
2022-10-17T13:39:12.318Z,17.60
2022-10-17T13:41:44.008Z,13.48
2022-10-17T13:44:16.178Z,11.70
2022-10-17T13:46:45.239Z,14.75
2022-10-17T13:49:23.242Z,15.45
2022-10-17T13:51:56.993Z,14.50
2022-10-17T13:54:38.203Z,15.18
2022-10-17T13:57:08.026Z,14.93
2022-10-17T13:59:41.191Z,17.73
2022-10-17T14:02:24.742Z,19.17
2022-10-17T14:05:17.329Z,13.82
2022-10-17T14:08:10.900Z,22.15
2022-10-17T14:10:42.956Z,17.98
2022-10-17T14:13:22.234Z,16.40
2022-10-17T14:15:52.076Z,12.77
2022-10-17T14:18:23.559Z,13.23
2022-10-17T14:23:43.648Z,16.08
2022-10-17T14:26:19.948Z,19.73
2022-10-17T14:28:52.544Z,13.98
2022-10-17T14:31:29.899Z,14.68
2022-10-17T14:33:59.448Z,19.30
2022-10-17T14:36:38.842Z,14.73
2022-10-17T14:39:14.298Z,16.73
2022-10-17T14:41:47.139Z,17.58
2022-10-17T14:44:22.721Z,12.57
2022-10-17T14:46:55.374Z,15.38
2022-10-17T14:49:32.476Z,18.90
2022-10-17T14:52:31.545Z,28.05
2022-10-17T14:55:01.632Z,14.40
2022-10-17T14:57:43.245Z,16.95
2022-10-17T15:00:16.163Z,12.77
2022-10-17T15:02:45.111Z,18.33
2022-10-17T15:05:13.858Z,15.77
2022-10-17T15:07:44.622Z,14.55
2022-10-17T15:10:34.379Z,19.88
2022-10-17T15:13:27.134Z,24.98
2022-10-17T15:15:53.689Z,17.48
2022-10-17T15:18:23.400Z,14.27
2022-10-17T15:20:59.595Z,15.80
2022-10-17T15:23:34.837Z,20.10
2022-10-17T15:26:04.834Z,13.85
2022-10-17T15:28:33.114Z,17.58
2022-10-17T15:31:01.329Z,16.67
2022-10-17T15:33:29.509Z,17.85
2022-10-17T15:35:59.384Z,15.65
2022-10-17T15:38:27.581Z,17.17
2022-10-17T15:40:57.111Z,16.85
2022-10-17T15:43:25.315Z,18.65
2022-10-17T15:45:53.711Z,18.88
2022-10-17T15:48:29.540Z,18.77
2022-10-17T15:51:00.793Z,18.02
2022-10-17T15:53:29.012Z,17.48
2022-10-17T15:56:00.271Z,15.02
2022-10-17T15:58:32.600Z,18.42
2022-10-17T16:01:01.269Z,19.45
2022-10-17T16:03:30.340Z,17.52
2022-10-17T16:05:59.030Z,20.48
2022-10-17T16:08:30.275Z,17.52
2022-10-17T16:10:59.855Z,16.98
2022-10-17T16:13:28.273Z,16.40
2022-10-17T16:15:58.411Z,14.73
2022-10-17T16:18:26.993Z,14.23
2022-10-17T16:20:55.231Z,15.55
2022-10-17T16:23:24.259Z,15.45
2022-10-17T16:25:52.420Z,16.58
2022-10-17T16:28:25.420Z,15.52
2022-10-17T16:30:54.282Z,14.18
2022-10-17T16:33:22.448Z,16.58
2022-10-17T16:35:50.610Z,23.88
2022-10-17T16:38:20.270Z,17.73
2022-10-17T16:40:48.421Z,20.30
2022-10-17T16:43:16.630Z,18.00
2022-10-17T16:45:46.318Z,17.50
2022-10-17T16:48:14.611Z,15.27
2022-10-17T16:50:42.809Z,16.42
2022-10-17T16:53:13.207Z,14.00
2022-10-17T16:55:41.359Z,16.38
2022-10-17T16:58:10.146Z,16.45
2022-10-17T17:00:42.617Z,13.85
2022-10-17T17:03:14.348Z,14.50
2022-10-17T17:05:42.668Z,16.73
2022-10-17T17:08:12.626Z,14.68
2022-10-17T17:10:46.891Z,17.38
2022-10-17T17:13:15.188Z,14.75
2022-10-17T17:18:20.785Z,21.73
2022-10-17T17:20:51.628Z,28.45
2022-10-17T17:23:19.788Z,20.20
2022-10-17T17:25:48.142Z,16.00
2022-10-17T17:28:16.213Z,13.02
2022-10-17T17:30:46.735Z,14.23
2022-10-17T17:33:15.116Z,15.60
2022-10-17T17:35:49.358Z,16.27
2022-10-17T17:38:20.546Z,16.58
2022-10-17T17:40:50.734Z,15.15
2022-10-17T17:43:20.119Z,17.90
2022-10-17T17:45:48.619Z,24.48
2022-10-17T17:48:16.858Z,22.83
2022-10-17T17:50:49.789Z,21.85
2022-10-17T17:53:19.003Z,25.67
2022-10-17T17:55:47.268Z,25.25
2022-10-17T17:58:15.491Z,23.67
2022-10-17T18:00:43.812Z,24.95
2022-10-17T18:03:12.491Z,26.67
2022-10-17T18:05:41.598Z,21.25
2022-10-17T18:08:11.249Z,26.13
2022-10-17T18:10:42.576Z,29.27
2022-10-17T18:13:10.759Z,21.33
2022-10-17T18:15:41.627Z,19.85
2022-10-17T18:18:10.206Z,17.70
2022-10-17T18:20:41.856Z,14.63
2022-10-17T18:23:12.023Z,18.02
2022-10-17T18:25:40.178Z,14.85
2022-10-17T18:28:09.107Z,18.15
2022-10-17T18:30:38.805Z,15.40
2022-10-17T18:33:07.372Z,21.40
2022-10-17T18:35:36.054Z,15.90
2022-10-17T18:38:04.200Z,17.75
2022-10-17T18:40:33.726Z,17.45
2022-10-17T18:43:01.870Z,17.33
2022-10-17T18:45:34.385Z,19.40
2022-10-17T18:48:03.448Z,17.55
2022-10-17T18:50:32.044Z,16.38
2022-10-17T18:53:00.354Z,16.08
2022-10-17T18:55:29.051Z,18.65
2022-10-17T18:58:02.741Z,16.15
2022-10-17T19:00:31.421Z,16.10
2022-10-17T19:03:04.289Z,16.25
2022-10-17T19:05:34.001Z,17.27
2022-10-17T19:08:03.687Z,17.05
2022-10-17T19:10:33.651Z,17.88
2022-10-17T19:13:04.033Z,16.70
2022-10-17T19:15:32.403Z,18.42
2022-10-17T19:18:00.609Z,18.33
2022-10-17T19:20:29.396Z,16.48
2022-10-17T19:22:59.222Z,15.30
2022-10-17T19:25:31.216Z,14.25
2022-10-17T19:28:00.600Z,15.52
2022-10-17T19:30:30.196Z,13.95
2022-10-17T19:33:00.159Z,16.58
2022-10-17T19:35:29.383Z,14.75
2022-10-17T19:37:58.510Z,14.77
2022-10-17T19:40:27.499Z,14.05
2022-10-17T19:42:56.064Z,17.10
2022-10-17T19:45:25.466Z,18.88
2022-10-17T19:47:54.946Z,21.23
2022-10-17T19:50:27.435Z,13.85
2022-10-17T19:52:55.637Z,14.43
2022-10-17T19:55:24.407Z,13.63
2022-10-17T19:57:52.734Z,14.50
2022-10-17T20:00:24.473Z,16.92
2022-10-17T20:02:57.506Z,17.02
2022-10-17T20:05:29.484Z,15.63
2022-10-17T20:07:58.411Z,16.80
2022-10-17T20:10:27.225Z,18.13
2022-10-17T20:12:55.910Z,14.07
2022-10-17T20:15:25.076Z,14.43
2022-10-17T20:17:54.777Z,14.25
2022-10-17T20:20:24.255Z,18.45
2022-10-17T20:22:52.487Z,16.35
2022-10-17T20:25:21.469Z,21.83
2022-10-17T20:27:49.680Z,20.10
2022-10-17T20:30:18.423Z,20.25
2022-10-17T20:32:47.446Z,21.40
2022-10-17T20:35:17.513Z,20.15
2022-10-17T20:37:45.669Z,22.98
2022-10-17T20:40:34.138Z,20.90
2022-10-17T20:43:03.899Z,23.80
2022-10-17T20:45:45.140Z,27.15
2022-10-17T20:48:24.884Z,26.40
2022-10-17T20:50:58.512Z,22.73
2022-10-17T20:53:42.044Z,30.13
2022-10-17T20:56:18.339Z,25.30
2022-10-17T20:58:47.474Z,24.55
2022-10-17T21:01:16.456Z,23.38
2022-10-17T21:03:48.545Z,23.65
2022-10-17T21:06:22.525Z,25.35
2022-10-17T21:08:55.633Z,26.13
2022-10-17T21:11:29.306Z,23.98
2022-10-17T21:13:59.410Z,26.23
2022-10-17T21:16:30.947Z,26.13
2022-10-17T21:18:59.446Z,26.27
2022-10-17T21:21:30.951Z,30.03
2022-10-17T21:24:01.490Z,27.63
2022-10-17T21:26:31.557Z,27.80
2022-10-17T21:29:04.705Z,26.53
2022-10-17T21:31:34.310Z,28.48
2022-10-17T21:34:07.617Z,28.40
2022-10-17T21:36:37.449Z,31.60
2022-10-17T21:41:40.297Z,26.27
2022-10-17T21:44:13.561Z,26.80
2022-10-17T21:46:41.921Z,21.97
2022-10-17T21:49:15.648Z,25.87
2022-10-17T21:51:45.951Z,26.30
2022-10-17T21:54:17.467Z,26.83
2022-10-17T21:56:45.808Z,22.90
2022-10-17T21:59:14.249Z,27.13
2022-10-17T22:01:44.201Z,25.10
2022-10-17T22:04:18.668Z,27.40
2022-10-17T22:06:53.587Z,24.60
2022-10-17T22:09:26.324Z,24.97
2022-10-17T22:11:59.588Z,26.17
2022-10-17T22:14:29.446Z,21.53
2022-10-17T22:17:01.483Z,26.27
2022-10-17T22:19:30.853Z,25.93
2022-10-17T22:22:00.375Z,28.70
2022-10-17T22:24:29.465Z,23.83
2022-10-17T22:27:01.391Z,25.97
2022-10-17T22:29:30.523Z,19.70
2022-10-17T22:32:01.408Z,22.13
2022-10-17T22:34:30.150Z,22.57
2022-10-17T22:36:59.312Z,20.17
2022-10-17T22:39:32.578Z,21.77
2022-10-17T22:42:03.646Z,20.10
2022-10-17T22:44:31.788Z,19.90
2022-10-17T22:47:00.193Z,17.77
2022-10-17T22:49:28.481Z,18.20
2022-10-17T22:51:56.609Z,18.33
2022-10-17T22:54:25.502Z,18.80
2022-10-17T22:56:55.473Z,20.73
2022-10-17T22:59:24.532Z,18.43
2022-10-17T23:01:52.802Z,17.60
2022-10-17T23:04:21.595Z,18.17
2022-10-17T23:06:53.328Z,19.87
2022-10-17T23:09:22.544Z,19.87
2022-10-17T23:11:50.788Z,18.17
2022-10-17T23:14:20.572Z,15.97
2022-10-17T23:16:48.853Z,18.07
2022-10-17T23:19:17.272Z,18.73
2022-10-17T23:21:46.353Z,15.87
2022-10-17T23:24:15.321Z,16.43
2022-10-17T23:26:47.413Z,16.23
2022-10-17T23:29:16.554Z,17.27
2022-10-17T23:31:46.337Z,16.53
2022-10-17T23:34:15.312Z,14.70
2022-10-17T23:36:44.346Z,16.57
2022-10-17T23:39:16.750Z,14.47
2022-10-17T23:41:45.064Z,19.30
2022-10-17T23:44:17.553Z,16.30
2022-10-17T23:46:47.107Z,14.50
2022-10-17T23:49:16.677Z,19.40
2022-10-17T23:51:45.366Z,18.03
2022-10-17T23:54:13.793Z,14.10
2022-10-17T23:56:42.342Z,15.67
2022-10-17T23:59:11.523Z,13.73
